Time;durP1;ratioP1;P1;durP2;ratioP2;P2;SDS_P1;SDS_P2;PMS_P1;PMS_P2;Temp;Humidity;BMP_temperature;BMP_pressure;BME280_temperature;BME280_humidity;BME280_pressure;Samples;Min_cycle;Max_cycle;Signal;HPM_P1;HPM_P2
2023/02/04 00:00:25;;;;;;;4.70;3.70;;;;;;;-1.56;100.00;99212.27;104355;1260;61679;-66
2023/02/04 00:02:54;;;;;;;7.00;4.00;;;;;;;-1.67;100.00;99213.14;104320;1256;74636;-65
2023/02/04 00:05:23;;;;;;;4.60;3.50;;;;;;;-1.64;100.00;99216.39;104268;1256;69820;-68
2023/02/04 00:07:51;;;;;;;4.00;3.30;;;;;;;-1.63;100.00;99212.09;104240;1257;73325;-64
2023/02/04 00:10:20;;;;;;;4.90;3.50;;;;;;;-1.58;100.00;99209.00;104361;1256;61691;-65
2023/02/04 00:12:48;;;;;;;4.10;3.30;;;;;;;-1.55;100.00;99212.09;104274;1263;61593;-63
2023/02/04 00:15:17;;;;;;;4.50;2.90;;;;;;;-1.51;100.00;99209.84;104259;1260;75239;-63
2023/02/04 00:17:45;;;;;;;3.70;3.00;;;;;;;-1.45;100.00;99212.60;104254;1263;69781;-63
2023/02/04 00:20:13;;;;;;;3.20;2.60;;;;;;;-1.43;100.00;99211.21;104362;1257;73996;-64
2023/02/04 00:22:42;;;;;;;2.50;2.20;;;;;;;-1.37;100.00;99207.77;104233;1269;63372;-64
2023/02/04 00:25:11;;;;;;;4.00;2.90;;;;;;;-1.23;100.00;99205.34;104284;1267;61605;-63
2023/02/04 00:27:40;;;;;;;3.50;2.20;;;;;;;-1.14;100.00;99201.70;104345;1257;74929;-62
2023/02/04 00:30:11;;;;;;;2.90;2.00;;;;;;;-1.06;100.00;99198.08;104314;1256;70319;-63
2023/02/04 00:32:41;;;;;;;2.50;2.10;;;;;;;-1.06;100.00;99201.35;104350;1263;73523;-62
2023/02/04 00:35:09;;;;;;;5.00;2.90;;;;;;;-1.04;100.00;99201.16;104241;1274;61698;-63
2023/02/04 00:37:38;;;;;;;2.10;1.90;;;;;;;-1.08;100.00;99202.55;104344;1254;61624;-62
2023/02/04 00:40:07;;;;;;;3.20;2.80;;;;;;;-1.08;100.00;99203.23;104319;1269;74427;-63
2023/02/04 00:42:36;;;;;;;3.10;2.50;;;;;;;-1.05;100.00;99207.20;104304;1254;69852;-63
2023/02/04 00:45:04;;;;;;;2.70;2.50;;;;;;;-1.07;100.00;99209.77;104205;1260;74725;-63
2023/02/04 00:47:36;;;;;;;4.90;2.60;;;;;;;-1.08;100.00;99213.73;104311;1257;61694;-63
2023/02/04 00:50:07;;;;;;;3.60;2.80;;;;;;;-0.94;100.00;99211.64;104281;1269;61679;-63
2023/02/04 01:53:34;;;;;;;2.90;2.30;;;;;;;-2.93;100.00;99206.64;102417;1292;601182;-63
2023/02/04 01:56:19;;;;;;;2.90;2.50;;;;;;;-2.20;100.00;99202.96;103453;1285;62205;-64
2023/02/04 01:58:47;;;;;;;3.20;2.80;;;;;;;-1.89;100.00;99197.66;103179;1271;59414;-64
2023/02/04 02:01:45;;;;;;;3.90;3.00;;;;;;;-1.66;100.00;99195.42;103531;1277;72261;-63
2023/02/04 02:04:16;;;;;;;3.20;2.90;;;;;;;-1.46;100.00;99194.70;103710;1277;69492;-65
2023/02/04 02:06:56;;;;;;;3.40;2.90;;;;;;;-1.34;100.00;99193.85;103674;1269;241770;-62
2023/02/04 02:09:27;;;;;;;2.80;2.50;;;;;;;-1.23;100.00;99190.38;103962;1275;60698;-62
2023/02/04 02:11:58;;;;;;;4.50;2.80;;;;;;;-1.10;100.00;99188.80;103926;1279;60452;-61
2023/02/04 02:14:27;;;;;;;4.20;2.90;;;;;;;-0.95;100.00;99189.95;104085;1264;72319;-61
2023/02/04 02:16:57;;;;;;;3.80;3.00;;;;;;;-0.83;100.00;99191.98;104440;1260;69776;-61
2023/02/04 02:19:28;;;;;;;2.70;2.40;;;;;;;-0.73;100.00;99190.38;104349;1273;73777;-62
2023/02/04 02:22:05;;;;;;;3.00;2.60;;;;;;;-0.67;100.00;99190.02;104250;1267;59643;-61
2023/02/04 02:24:35;;;;;;;2.40;2.20;;;;;;;-0.65;100.00;99194.30;104546;1252;59740;-62
2023/02/04 02:27:07;;;;;;;2.90;2.20;;;;;;;-0.57;100.00;99191.52;104535;1263;72727;-62
2023/02/04 02:29:37;;;;;;;4.00;2.70;;;;;;;-0.51;100.00;99190.97;104442;1255;69648;-62
2023/02/04 02:32:06;;;;;;;4.10;2.80;;;;;;;-0.49;100.00;99190.10;104583;1260;72653;-62
2023/02/04 02:34:35;;;;;;;3.40;2.80;;;;;;;-0.51;100.00;99189.77;104519;1259;59768;-62
2023/02/04 02:37:04;;;;;;;4.50;2.90;;;;;;;-0.58;100.00;99193.23;104494;1256;60067;-61
2023/02/04 02:39:32;;;;;;;3.80;3.20;;;;;;;-0.64;100.00;99192.91;104276;1257;72034;-62
2023/02/04 02:42:01;;;;;;;3.60;3.10;;;;;;;-0.63;100.00;99193.44;104554;1257;70040;-62
2023/02/04 02:44:29;;;;;;;5.00;3.40;;;;;;;-0.53;100.00;99194.42;104686;1263;71682;-61
2023/02/04 02:46:58;;;;;;;3.70;3.00;;;;;;;-0.45;100.00;99198.34;104583;1251;59758;-62
2023/02/04 02:49:30;;;;;;;4.50;3.20;;;;;;;-0.44;100.00;99199.53;104424;1256;59769;-61
2023/02/04 02:51:58;;;;;;;3.50;2.80;;;;;;;-0.41;100.00;99199.52;104594;1251;73009;-62
2023/02/04 02:54:30;;;;;;;8.00;3.40;;;;;;;-0.38;100.00;99197.80;104473;1256;69411;-62
2023/02/04 02:57:01;;;;;;;3.50;2.90;;;;;;;-0.43;100.00;99198.84;104646;1251;72878;-65
2023/02/04 02:59:30;;;;;;;4.10;3.10;;;;;;;-0.46;100.00;99199.38;104575;1256;60422;-65
2023/02/04 03:02:00;;;;;;;3.50;3.10;;;;;;;-0.49;100.00;99199.73;104600;1254;59331;-65
2023/02/04 03:04:33;;;;;;;3.60;3.00;;;;;;;-0.56;100.00;99201.33;104517;1257;72338;-65
2023/02/04 03:07:02;;;;;;;3.90;3.50;;;;;;;-0.58;100.00;99206.66;104513;1251;69794;-66
2023/02/04 03:09:31;;;;;;;5.20;3.90;;;;;;;-0.62;100.00;99208.92;104414;1259;72249;-66
2023/02/04 03:12:00;;;;;;;7.30;4.20;;;;;;;-0.63;100.00;99207.89;104407;1251;60111;-66
2023/02/04 03:14:29;;;;;;;5.80;4.00;;;;;;;-0.59;100.00;99210.80;104434;1269;59681;-65
2023/02/04 03:16:57;;;;;;;5.90;4.00;;;;;;;-0.52;100.00;99211.46;104445;1270;72176;-65
2023/02/04 03:19:25;;;;;;;6.70;4.00;;;;;;;-0.47;100.00;99213.16;104424;1251;68720;-65
2023/02/04 03:21:56;;;;;;;5.20;3.70;;;;;;;-0.43;100.00;99213.31;104514;1257;71564;-65
2023/02/04 03:24:25;;;;;;;4.90;3.50;;;;;;;-0.42;100.00;99212.95;104629;1256;59767;-65
2023/02/04 03:26:53;;;;;;;4.80;3.80;;;;;;;-0.46;100.00;99212.81;104394;1256;59762;-64
2023/02/04 03:29:22;;;;;;;6.30;3.90;;;;;;;-0.47;100.00;99210.40;104393;1257;73030;-63
2023/02/04 03:31:50;;;;;;;5.40;4.10;;;;;;;-0.46;100.00;99213.31;104467;1253;68833;-64
2023/02/04 03:34:20;;;;;;;4.50;3.70;;;;;;;-0.44;100.00;99215.20;104591;1256;71904;-64
2023/02/04 03:36:50;;;;;;;4.10;3.40;;;;;;;-0.40;100.00;99217.42;104477;1267;59878;-64
2023/02/04 03:39:18;;;;;;;5.10;3.40;;;;;;;-0.42;100.00;99220.36;104586;1258;59704;-64
2023/02/04 03:41:46;;;;;;;5.00;4.00;;;;;;;-0.51;100.00;99220.92;104466;1258;71953;-63
2023/02/04 03:44:15;;;;;;;4.50;3.70;;;;;;;-0.52;100.00;99219.38;104453;1261;68797;-68
2023/02/04 03:46:45;;;;;;;4.40;3.60;;;;;;;-0.51;100.00;99218.86;104488;1272;72479;-67
2023/02/04 03:49:14;;;;;;;3.90;3.30;;;;;;;-0.47;100.00;99217.98;104520;1257;60115;-64
2023/02/04 03:51:42;;;;;;;4.30;3.40;;;;;;;-0.45;100.00;99220.21;104430;1263;59751;-64
2023/02/04 03:54:10;;;;;;;4.20;3.20;;;;;;;-0.42;100.00;99221.57;104586;1255;72683;-64
2023/02/04 03:56:39;;;;;;;5.80;3.40;;;;;;;-0.46;100.00;99216.42;104649;1257;70160;-64
2023/02/04 03:59:07;;;;;;;4.10;3.20;;;;;;;-0.48;100.00;99217.30;104585;1254;72881;-69
2023/02/04 04:01:40;;;;;;;3.50;3.00;;;;;;;-0.47;100.00;99217.12;104342;1256;60697;-62
2023/02/04 04:04:09;;;;;;;5.10;3.80;;;;;;;-0.48;100.00;99215.73;104585;1268;60383;-63
2023/02/04 04:06:37;;;;;;;4.00;3.10;;;;;;;-0.46;100.00;99215.05;104480;1256;73269;-62
2023/02/04 04:09:06;;;;;;;3.50;2.60;;;;;;;-0.41;100.00;99217.95;104732;1259;69743;-63
2023/02/04 04:11:34;;;;;;;4.90;3.40;;;;;;;-0.37;100.00;99217.77;104414;1264;73587;-62
2023/02/04 04:14:07;;;;;;;4.70;2.60;;;;;;;-0.31;100.00;99215.83;104481;1264;60383;-62
2023/02/04 04:16:35;;;;;;;4.80;3.20;;;;;;;-0.25;100.00;99218.38;104543;1264;59983;-62
2023/02/04 04:19:04;;;;;;;3.70;2.80;;;;;;;-0.25;100.00;99219.05;104415;1257;73235;-62
2023/02/04 04:21:33;;;;;;;3.90;2.50;;;;;;;-0.21;100.00;99219.56;104551;1270;69558;-62
2023/02/04 04:24:02;;;;;;;4.00;2.70;;;;;;;-0.17;100.00;99217.99;104460;1260;73340;-62
2023/02/04 04:26:30;;;;;;;3.70;2.40;;;;;;;-0.11;100.00;99219.67;104682;1255;60252;-63
2023/02/04 04:28:58;;;;;;;3.70;2.40;;;;;;;-0.04;100.00;99220.32;104374;1256;59848;-63
2023/02/04 04:31:27;;;;;;;3.60;2.70;;;;;;;0.01;100.00;99226.83;104330;1269;74319;-63
2023/02/04 04:33:55;;;;;;;3.30;2.50;;;;;;;0.03;100.00;99228.36;104436;1267;70381;-63
2023/02/04 04:36:24;;;;;;;3.40;2.90;;;;;;;0.06;100.00;99235.41;104434;1259;73190;-63
2023/02/04 04:38:52;;;;;;;5.00;3.50;;;;;;;0.09;100.00;99233.66;104392;1267;61602;-63
2023/02/04 04:41:21;;;;;;;4.40;3.20;;;;;;;0.10;100.00;99233.14;104323;1272;60822;-63
2023/02/04 04:43:49;;;;;;;4.30;3.10;;;;;;;0.11;100.00;99233.83;104352;1257;73942;-63
2023/02/04 04:46:18;;;;;;;3.60;3.20;;;;;;;0.13;100.00;99234.16;104401;1267;69891;-63
2023/02/04 04:48:46;;;;;;;4.40;3.20;;;;;;;0.16;100.00;99239.14;104309;1257;74902;-62
2023/02/04 04:51:14;;;;;;;5.80;3.20;;;;;;;0.21;100.00;99240.31;104377;1257;61657;-64
2023/02/04 04:53:43;;;;;;;6.40;3.70;;;;;;;0.25;100.00;99241.66;104336;1266;60751;-63
2023/02/04 04:56:11;;;;;;;5.30;3.90;;;;;;;0.25;100.00;99244.59;104338;1258;73292;-63
2023/02/04 04:58:40;;;;;;;5.10;4.00;;;;;;;0.23;100.00;99248.23;104403;1272;71229;-63
2023/02/04 05:01:08;;;;;;;4.60;3.70;;;;;;;0.22;100.00;99249.44;104406;1267;73733;-70
2023/02/04 05:03:37;;;;;;;5.40;3.70;;;;;;;0.23;100.00;99249.95;104527;1271;61290;-69
2023/02/04 05:06:05;;;;;;;4.80;3.70;;;;;;;0.24;100.00;99256.32;104382;1253;62440;-65
2023/02/04 05:08:34;;;;;;;4.80;3.60;;;;;;;0.24;100.00;99257.18;104423;1256;73820;-68
2023/02/04 05:11:03;;;;;;;5.10;3.70;;;;;;;0.26;100.00;99260.27;104477;1256;71324;-67
2023/02/04 05:13:32;;;;;;;6.30;4.00;;;;;;;0.26;100.00;99267.51;104387;1258;73426;-67
2023/02/04 05:16:00;;;;;;;4.60;3.90;;;;;;;0.26;100.00;99269.56;104381;1274;62299;-65
2023/02/04 05:18:29;;;;;;;4.70;3.70;;;;;;;0.26;100.00;99273.71;104441;1254;60476;-66
2023/02/04 05:20:57;;;;;;;3.90;3.50;;;;;;;0.27;100.00;99276.46;104288;1256;73470;-66
2023/02/04 05:23:26;;;;;;;5.30;3.80;;;;;;;0.29;100.00;99281.45;104409;1256;70580;-66
2023/02/04 05:25:54;;;;;;;5.10;3.80;;;;;;;0.31;100.00;99285.75;104291;1266;72978;-66
2023/02/04 05:28:22;;;;;;;5.00;3.90;;;;;;;0.34;100.00;99290.55;104371;1257;61286;-66
2023/02/04 05:30:51;;;;;;;4.50;3.40;;;;;;;0.38;100.00;99294.33;104362;1261;60776;-66
2023/02/04 05:33:19;;;;;;;4.60;3.40;;;;;;;0.43;100.00;99296.02;104527;1255;73373;-66
2023/02/04 05:35:48;;;;;;;5.60;3.90;;;;;;;0.44;100.00;99298.08;104325;1264;69717;-66
2023/02/04 05:38:17;;;;;;;5.30;3.70;;;;;;;0.45;100.00;99297.54;104389;1256;73230;-66
2023/02/04 05:40:46;;;;;;;5.50;4.00;;;;;;;0.44;100.00;99301.01;104364;1263;61281;-66
2023/02/04 05:43:15;;;;;;;6.60;4.40;;;;;;;0.44;100.00;99300.83;104543;1254;60475;-67
2023/02/04 05:45:43;;;;;;;5.40;4.90;;;;;;;0.47;100.00;99298.23;104397;1266;73167;-67
2023/02/04 05:48:11;;;;;;;5.40;4.10;;;;;;;0.46;100.00;99299.43;104422;1256;69546;-68
2023/02/04 05:50:42;;;;;;;6.10;4.60;;;;;;;0.47;100.00;99304.25;104369;1274;73320;-69
2023/02/04 05:53:11;;;;;;;6.50;4.50;;;;;;;0.49;100.00;99310.63;104607;1251;61694;-66
2023/02/04 05:55:41;;;;;;;5.00;4.20;;;;;;;0.49;100.00;99318.72;104728;1254;62029;-65
2023/02/04 05:58:09;;;;;;;4.90;4.10;;;;;;;0.50;100.00;99321.30;104463;1261;73821;-63
2023/02/04 06:00:39;;;;;;;6.10;4.10;;;;;;;0.52;100.00;99325.60;104509;1252;69664;-67
2023/02/04 06:03:07;;;;;;;6.50;4.50;;;;;;;0.53;100.00;99329.57;104624;1254;73583;-66
2023/02/04 06:05:36;;;;;;;5.40;4.30;;;;;;;0.50;100.00;99334.08;104407;1254;62178;-66
2023/02/04 06:08:04;;;;;;;5.00;3.60;;;;;;;0.48;100.00;99339.95;104453;1267;61590;-64
2023/02/04 06:10:32;;;;;;;5.10;3.50;;;;;;;0.50;100.00;99341.83;104388;1254;74526;-68
2023/02/04 06:13:01;;;;;;;6.10;4.30;;;;;;;0.51;100.00;99342.17;104450;1256;70466;-66
2023/02/04 06:15:30;;;;;;;4.90;3.60;;;;;;;0.55;100.00;99343.52;104437;1251;72830;-66
2023/02/04 06:17:59;;;;;;;5.50;3.90;;;;;;;0.61;100.00;99345.20;104358;1261;61683;-64
2023/02/04 06:20:27;;;;;;;5.70;4.00;;;;;;;0.67;100.00;99347.92;104482;1255;61736;-66
2023/02/04 06:22:55;;;;;;;4.70;3.80;;;;;;;0.73;100.00;99350.30;104434;1251;74836;-67
2023/02/04 06:25:26;;;;;;;6.60;3.90;;;;;;;0.78;100.00;99355.95;104562;1251;70520;-68
2023/02/04 06:27:54;;;;;;;4.40;3.50;;;;;;;0.84;100.00;99357.11;104386;1270;73185;-65
2023/02/04 06:30:23;;;;;;;3.50;3.20;;;;;;;0.88;100.00;99358.98;104519;1251;62261;-67
2023/02/04 06:32:51;;;;;;;4.70;3.40;;;;;;;0.94;100.00;99361.00;104650;1251;61549;-69
2023/02/04 06:35:20;;;;;;;4.20;3.30;;;;;;;0.96;100.00;99355.45;104374;1264;76636;-67
2023/02/04 06:37:48;;;;;;;5.00;3.10;;;;;;;0.98;100.00;99356.83;104606;1255;71004;-68
2023/02/04 06:40:17;;;;;;;4.50;2.80;;;;;;;1.02;100.00;99360.41;104390;1258;74337;-69
2023/02/04 06:42:46;;;;;;;4.60;2.80;;;;;;;1.05;100.00;99362.63;104391;1264;63012;-69
2023/02/04 06:45:15;;;;;;;4.70;3.60;;;;;;;1.09;100.00;99366.58;104343;1251;61687;-70
2023/02/04 06:47:44;;;;;;;4.50;3.00;;;;;;;1.11;100.00;99367.08;104407;1256;73977;-69
2023/02/04 06:50:17;;;;;;;4.70;2.70;;;;;;;1.12;100.00;99369.30;104502;1254;69975;-68
2023/02/04 06:52:47;;;;;;;4.30;3.00;;;;;;;1.10;100.00;99369.33;104562;1267;76694;-67
2023/02/04 06:55:16;;;;;;;3.40;2.60;;;;;;;1.10;100.00;99370.87;104509;1261;61677;-68
2023/02/04 06:57:44;;;;;;;5.40;3.00;;;;;;;1.15;100.00;99376.54;104371;1258;61589;-71
2023/02/04 07:00:13;;;;;;;3.30;2.70;;;;;;;1.18;100.00;99379.44;104462;1255;76325;-71
2023/02/04 07:02:44;;;;;;;3.70;2.70;;;;;;;1.20;100.00;99382.36;104449;1267;70497;-67
2023/02/04 07:05:13;;;;;;;4.80;3.50;;;;;;;1.21;100.00;99380.64;104536;1251;74335;-66
2023/02/04 07:07:41;;;;;;;2.50;2.20;;;;;;;1.21;100.00;99382.36;104424;1263;63285;-67
2023/02/04 07:10:10;;;;;;;4.20;2.50;;;;;;;1.23;100.00;99387.52;104652;1256;61682;-67
2023/02/04 07:12:58;;;;;;;3.40;2.50;;;;;;;1.28;100.00;99391.43;104430;1258;76741;-68
2023/02/04 07:15:30;;;;;;;3.20;2.80;;;;;;;1.32;100.00;99392.61;104358;1273;70047;-68
2023/02/04 07:17:59;;;;;;;3.70;2.90;;;;;;;1.35;100.00;99392.23;104452;1257;74097;-68
2023/02/04 07:20:27;;;;;;;2.60;2.40;;;;;;;1.40;100.00;99392.54;104374;1257;61694;-67
2023/02/04 07:22:57;;;;;;;3.90;2.90;;;;;;;1.42;100.00;99394.41;104564;1256;61602;-69
2023/02/04 07:25:25;;;;;;;4.60;3.60;;;;;;;1.45;100.00;99396.11;104769;1254;74437;-69
2023/02/04 07:27:55;;;;;;;3.10;2.80;;;;;;;1.48;100.00;99397.63;104434;1257;70954;-68
2023/02/04 07:30:23;;;;;;;4.20;3.10;;;;;;;1.52;100.00;99396.20;104445;1263;74243;-63
2023/02/04 07:32:52;;;;;;;5.40;3.20;;;;;;;1.58;100.00;99394.27;104376;1257;63159;-67
2023/02/04 07:35:20;;;;;;;5.90;2.70;;;;;;;1.62;100.00;99398.19;104573;1251;61586;-65
2023/02/04 07:37:49;;;;;;;3.80;3.00;;;;;;;1.66;100.00;99402.13;104527;1251;74288;-65
2023/02/04 07:40:17;;;;;;;3.60;3.00;;;;;;;1.67;100.00;99404.52;104508;1255;70204;-64
2023/02/04 07:42:46;;;;;;;3.80;3.10;;;;;;;1.64;100.00;99403.70;104518;1261;73747;-65
2023/02/04 09:51:42;;;;;;;1.90;1.80;;;;;;;-0.43;100.00;99460.23;102236;1291;601738;-66
2023/02/04 09:54:15;;;;;;;2.20;2.10;;;;;;;0.24;100.00;99462.17;103774;1270;60646;-70
2023/02/04 09:56:44;;;;;;;2.40;2.20;;;;;;;0.54;100.00;99456.85;104123;1268;59337;-69
2023/02/04 09:59:18;;;;;;;2.60;2.40;;;;;;;0.72;100.00;99462.27;103792;1272;72306;-66
2023/02/04 10:01:54;;;;;;;3.80;2.40;;;;;;;0.82;100.00;99461.01;104076;1266;69596;-69
2023/02/04 10:04:23;;;;;;;3.40;2.90;;;;;;;0.89;100.00;99462.17;103759;1266;267406;-65
2023/02/04 10:06:51;;;;;;;4.20;3.30;;;;;;;0.97;100.00;99461.95;104496;1256;61136;-67
2023/02/04 10:09:19;;;;;;;4.50;3.30;;;;;;;1.03;100.00;99462.08;104940;1254;59392;-69
2023/02/04 10:11:48;;;;;;;4.50;3.10;;;;;;;1.08;100.00;99462.91;104651;1249;72614;-65
2023/02/04 10:14:20;;;;;;;3.60;2.80;;;;;;;1.09;100.00;99462.89;104652;1256;69557;-66
2023/02/04 10:16:55;;;;;;;4.30;2.70;;;;;;;1.19;100.00;99469.05;104943;1256;72161;-64
2023/02/04 10:19:27;;;;;;;;;;;;;;;1.27;100.00;99468.63;104595;1259;60283;-62
2023/02/04 10:21:55;;;;;;;3.50;2.80;;;;;;;1.20;100.00;99469.72;104860;1254;59667;-68
2023/02/04 10:24:29;;;;;;;3.40;3.10;;;;;;;1.19;100.00;99474.75;104500;1254;73435;-64
2023/02/04 10:27:10;;;;;;;2.50;2.20;;;;;;;1.18;100.00;99479.58;104668;1250;69200;-68
2023/02/04 10:29:41;;;;;;;3.00;2.40;;;;;;;1.21;100.00;99485.10;104696;1254;71686;-67
2023/02/04 10:32:29;;;;;;;2.60;2.40;;;;;;;1.25;100.00;99493.16;105034;1254;60720;-65
2023/02/04 10:35:01;;;;;;;2.20;2.10;;;;;;;1.26;100.00;99499.38;104531;1254;59777;-67
2023/02/04 10:37:30;;;;;;;3.40;3.10;;;;;;;1.34;100.00;99506.40;104433;1250;73086;-67
2023/02/04 10:39:59;;;;;;;2.60;2.40;;;;;;;1.34;100.00;99509.86;104581;1256;68650;-64
2023/02/04 10:42:29;;;;;;;2.80;2.40;;;;;;;1.29;100.00;99507.65;104938;1250;71728;-65
2023/02/04 10:44:58;;;;;;;2.00;1.80;;;;;;;1.27;100.00;99510.77;105693;1249;59818;-67
2023/02/04 10:47:29;;;;;;;2.60;2.10;;;;;;;1.28;100.00;99510.94;104748;1255;59744;-68
2023/02/04 10:50:16;;;;;;;2.80;2.50;;;;;;;1.35;100.00;99512.27;104670;1254;73016;-65
2023/02/04 10:52:50;;;;;;;2.40;2.20;;;;;;;1.47;100.00;99513.91;104431;1269;69322;-64
2023/02/04 10:55:21;;;;;;;2.40;2.20;;;;;;;1.51;100.00;99517.16;104862;1250;73888;-64
2023/02/04 10:57:50;;;;;;;2.40;2.20;;;;;;;1.51;100.00;99521.48;104747;1250;59651;-66
2023/02/04 11:00:21;;;;;;;2.40;2.10;;;;;;;1.52;100.00;99526.64;104528;1255;60557;-63
2023/02/04 11:02:57;;;;;;;2.30;2.10;;;;;;;1.50;100.00;99529.08;104542;1252;73261;-67
2023/02/04 11:05:31;;;;;;;1.90;1.70;;;;;;;1.45;100.00;99537.24;104635;1250;68975;-67
2023/02/04 11:08:00;;;;;;;2.80;1.90;;;;;;;1.38;100.00;99539.88;104295;1256;71813;-67
2023/02/04 11:10:32;;;;;;;2.30;1.80;;;;;;;1.42;100.00;99545.89;104469;1254;60504;-66
2023/02/04 11:13:03;;;;;;;2.10;1.90;;;;;;;1.46;100.00;99545.17;104330;1255;60470;-66
2023/02/04 11:15:46;;;;;;;2.30;2.10;;;;;;;1.41;100.00;99547.46;104758;1254;72438;-66
2023/02/04 11:18:20;;;;;;;2.00;1.70;;;;;;;1.29;100.00;99556.69;104911;1249;68752;-64
2023/02/04 11:20:51;;;;;;;1.60;1.50;;;;;;;1.26;100.00;99553.95;104654;1251;72212;-65
2023/02/04 11:23:26;;;;;;;1.60;1.50;;;;;;;1.25;100.00;99556.54;104619;1254;60383;-61
2023/02/04 11:26:17;;;;;;;2.60;1.60;;;;;;;1.20;100.00;99561.77;104716;1269;60234;-63
2023/02/04 11:28:58;;;;;;;2.10;1.60;;;;;;;1.03;100.00;99575.32;104877;1251;73573;-63
2023/02/04 11:31:29;;;;;;;1.80;1.70;;;;;;;1.03;100.00;99579.11;104688;1253;69614;-63
2023/02/04 11:34:08;;;;;;;1.90;1.60;;;;;;;1.06;100.00;99575.30;104564;1268;71666;-66
2023/02/04 11:36:55;;;;;;;1.60;1.40;;;;;;;5.22;100.00;99594.92;104767;1265;60882;-63
2023/02/04 11:39:31;;;;;;;1.50;1.40;;;;;;;5.46;100.00;99553.10;105005;1255;60780;-62
2023/02/04 11:42:00;;;;;;;3.10;1.60;;;;;;;5.44;100.00;99550.55;104600;1260;71573;-63
2023/02/04 11:44:28;;;;;;;1.90;1.70;;;;;;;5.41;100.00;99549.56;104692;1256;68527;-59
2023/02/04 11:46:57;;;;;;;1.90;1.70;;;;;;;5.28;100.00;99555.80;104908;1260;72125;-60
2023/02/04 11:49:26;;;;;;;2.30;1.40;;;;;;;5.16;100.00;99556.75;104613;1256;60860;-60
2023/02/04 11:52:07;;;;;;;1.60;1.40;;;;;;;5.04;100.00;99562.05;104954;1254;60824;-60
2023/02/04 11:54:36;;;;;;;2.00;1.80;;;;;;;4.93;100.00;99568.52;104762;1254;73538;-60
2023/02/04 11:57:05;;;;;;;1.80;1.70;;;;;;;4.81;100.00;99568.07;104868;1265;70041;-60
2023/02/04 11:59:35;;;;;;;2.30;1.70;;;;;;;4.70;100.00;99570.73;104685;1253;72066;-64
2023/02/04 12:02:17;;;;;;;1.60;1.40;;;;;;;4.71;100.00;99569.51;104661;1255;61195;-65
2023/02/04 12:04:53;;;;;;;1.50;1.40;;;;;;;4.80;100.00;99575.75;104531;1256;60776;-66
2023/02/04 12:07:24;;;;;;;2.00;1.40;;;;;;;4.76;100.00;99576.17;104503;1263;72106;-65
2023/02/04 12:09:53;;;;;;;1.80;1.40;;;;;;;4.79;100.00;99575.76;104651;1256;70615;-65
2023/02/04 12:12:23;;;;;;;1.70;1.50;;;;;;;4.81;100.00;99582.32;105000;1267;73316;-65
2023/02/04 12:15:01;;;;;;;2.20;1.50;;;;;;;4.74;100.00;99582.13;104625;1264;60916;-65
2023/02/04 12:17:30;;;;;;;1.90;1.70;;;;;;;4.73;100.00;99583.89;104834;1256;60815;-66
2023/02/04 12:20:00;;;;;;;2.70;1.90;;;;;;;4.80;100.00;99584.08;104875;1262;71981;-67
2023/02/04 12:22:29;;;;;;;3.60;2.60;;;;;;;4.71;100.00;99585.98;104757;1255;68936;-64
2023/02/04 12:24:57;;;;;;;2.60;2.00;;;;;;;4.70;100.00;99587.23;104581;1256;71247;-64
2023/02/04 12:27:27;;;;;;;2.50;2.20;;;;;;;4.73;100.00;99591.17;104759;1253;61002;-67
2023/02/04 12:29:56;;;;;;;3.30;2.20;;;;;;;4.80;100.00;99594.14;104861;1256;60771;-66
2023/02/04 12:32:24;;;;;;;3.10;2.00;;;;;;;4.79;100.00;99589.99;104646;1259;73689;-68
2023/02/04 12:34:57;;;;;;;2.10;1.90;;;;;;;4.73;100.00;99593.95;104890;1253;68750;-68
2023/02/04 12:37:25;;;;;;;2.30;2.10;;;;;;;4.71;100.00;99593.13;104779;1259;72408;-65
2023/02/04 12:39:54;;;;;;;1.90;1.70;;;;;;;4.67;100.00;99592.84;104831;1255;61164;-65
2023/02/04 12:42:23;;;;;;;3.00;2.10;;;;;;;4.60;100.00;99595.58;104743;1257;60802;-60
2023/02/04 12:44:52;;;;;;;1.70;1.60;;;;;;;4.58;100.00;99594.92;104674;1260;71889;-62
2023/02/04 12:47:20;;;;;;;4.00;2.50;;;;;;;4.63;100.00;99598.30;104812;1256;69556;-63
2023/02/04 12:49:48;;;;;;;2.40;1.90;;;;;;;4.73;100.00;99595.69;105169;1256;71571;-63
2023/02/04 12:52:17;;;;;;;2.60;1.80;;;;;;;4.71;100.00;99601.97;104850;1266;60866;-62
2023/02/04 12:54:46;;;;;;;4.10;3.00;;;;;;;4.73;100.00;99602.27;104797;1256;61069;-62
2023/02/04 12:57:18;;;;;;;10.70;4.00;;;;;;;4.77;100.00;99601.69;104539;1266;72296;-63
2023/02/04 12:59:50;;;;;;;5.20;2.90;;;;;;;4.78;100.00;99602.52;104617;1257;70388;-59
2023/02/04 13:02:18;;;;;;;3.20;2.30;;;;;;;4.81;100.00;99603.86;104899;1256;72363;-61
2023/02/04 13:04:47;;;;;;;2.70;1.70;;;;;;;4.78;100.00;99606.87;104764;1255;60886;-63
2023/02/04 13:07:16;;;;;;;1.70;1.60;;;;;;;4.76;100.00;99609.85;105021;1256;62076;-61
2023/02/04 13:09:44;;;;;;;2.10;1.90;;;;;;;4.85;100.00;99607.60;105028;1256;71575;-62
2023/02/04 13:12:16;;;;;;;1.70;1.60;;;;;;;4.93;100.00;99609.88;104921;1259;70247;-59
2023/02/04 13:14:44;;;;;;;1.50;1.40;;;;;;;4.87;100.00;99616.07;104910;1256;73514;-58
2023/02/04 13:17:13;;;;;;;1.80;1.30;;;;;;;4.86;100.00;99623.05;104739;1262;60881;-59
2023/02/04 13:19:42;;;;;;;1.50;1.40;;;;;;;4.82;100.00;99628.85;104867;1269;60853;-59
2023/02/04 13:22:10;;;;;;;2.00;1.50;;;;;;;4.80;100.00;99629.06;104764;1256;71804;-59
2023/02/04 13:24:38;;;;;;;2.20;1.50;;;;;;;4.84;100.00;99625.67;104923;1255;69398;-61
2023/02/04 13:27:07;;;;;;;2.40;1.60;;;;;;;4.91;100.00;99623.12;104838;1256;71817;-59
2023/02/04 13:29:36;;;;;;;2.20;2.00;;;;;;;4.92;100.00;99626.02;104735;1256;61324;-60
2023/02/04 13:32:05;;;;;;;3.70;1.80;;;;;;;4.91;100.00;99631.80;104843;1256;60733;-60
2023/02/04 13:34:33;;;;;;;2.20;1.80;;;;;;;4.84;100.00;99630.02;104714;1255;72654;-59
2023/02/04 13:37:02;;;;;;;1.40;1.30;;;;;;;4.80;100.00;99639.32;104847;1254;70121;-60
2023/02/04 13:39:34;;;;;;;2.10;1.80;;;;;;;4.81;100.00;99640.15;104770;1255;71425;-59
2023/02/04 13:42:02;;;;;;;1.70;1.60;;;;;;;4.87;100.00;99646.64;104823;1256;60874;-60
2023/02/04 13:44:32;;;;;;;1.90;1.70;;;;;;;4.86;100.00;99649.61;104807;1255;60854;-60
2023/02/04 13:47:01;;;;;;;2.20;1.60;;;;;;;4.88;100.00;99651.82;105010;1262;73805;-59
2023/02/04 13:49:29;;;;;;;3.50;1.90;;;;;;;4.91;100.00;99653.69;104678;1256;68307;-60
2023/02/04 13:51:58;;;;;;;1.90;1.70;;;;;;;4.90;100.00;99657.86;104809;1256;73556;-62
2023/02/04 13:54:26;;;;;;;2.40;1.60;;;;;;;4.78;100.00;99662.09;104944;1254;60854;-62
2023/02/04 13:56:55;;;;;;;2.70;1.60;;;;;;;4.61;100.00;99666.91;104867;1253;61157;-63
2023/02/04 13:59:23;;;;;;;1.70;1.50;;;;;;;4.54;100.00;99673.14;104745;1264;72555;-62
2023/02/04 14:01:51;;;;;;;1.30;1.10;;;;;;;4.52;100.00;99672.45;104766;1262;69221;-62
2023/02/04 14:04:20;;;;;;;1.20;1.10;;;;;;;4.51;100.00;99679.78;104672;1255;72433;-62
2023/02/04 14:06:49;;;;;;;1.50;1.20;;;;;;;4.47;100.00;99678.80;104598;1272;61795;-62
2023/02/04 14:09:18;;;;;;;1.20;1.10;;;;;;;4.45;100.00;99680.73;104739;1256;61582;-62
2023/02/04 14:11:47;;;;;;;1.40;1.20;;;;;;;4.43;100.00;99681.65;104884;1256;73684;-62
2023/02/04 14:14:16;;;;;;;1.40;1.20;;;;;;;4.37;100.00;99680.70;105143;1254;69953;-61
2023/02/04 14:16:44;;;;;;;1.10;1.00;;;;;;;4.28;100.00;99681.73;104492;1256;72994;-61
2023/02/04 14:19:13;;;;;;;1.90;1.30;;;;;;;4.26;100.00;99683.13;105042;1253;61686;-64
2023/02/04 14:21:42;;;;;;;1.80;1.60;;;;;;;4.18;100.00;99687.43;104838;1262;62057;-61
2023/02/04 14:24:10;;;;;;;1.80;1.50;;;;;;;4.13;100.00;99687.34;104856;1254;73378;-61
2023/02/04 14:26:39;;;;;;;2.00;1.60;;;;;;;4.08;100.00;99685.50;104721;1255;68604;-61
2023/02/04 14:29:07;;;;;;;2.60;1.90;;;;;;;4.07;100.00;99688.98;104670;1262;72109;-61
2023/02/04 14:31:36;;;;;;;2.40;1.80;;;;;;;4.06;100.00;99695.09;104762;1256;61683;-65
2023/02/04 14:34:05;;;;;;;2.20;1.90;;;;;;;3.98;100.00;99698.84;104923;1256;61593;-68
2023/02/04 14:36:34;;;;;;;2.20;1.60;;;;;;;3.95;100.00;99700.64;104478;1257;72950;-66
2023/02/04 14:39:02;;;;;;;1.50;1.40;;;;;;;3.93;100.00;99707.93;104852;1257;70229;-69
2023/02/04 14:41:31;;;;;;;1.30;1.20;;;;;;;3.95;100.00;99710.17;105014;1256;71595;-68